sensor_id;sensor_type;location;lat;lon;timestamp;P1;durP1;ratioP1;P2;durP2;ratioP2
7817;SDS011;3954;52.624;9.212;2023-03-01T00:02:19;7.10;;;5.90;;
7817;SDS011;3954;52.624;9.212;2023-03-01T00:04:47;8.43;;;6.20;;
7817;SDS011;3954;52.624;9.212;2023-03-01T00:07:13;7.80;;;5.90;;
7817;SDS011;3954;52.624;9.212;2023-03-01T00:09:39;8.87;;;5.70;;
7817;SDS011;3954;52.624;9.212;2023-03-01T00:12:05;7.60;;;5.90;;
7817;SDS011;3954;52.624;9.212;2023-03-01T00:14:31;7.30;;;6.23;;
7817;SDS011;3954;52.624;9.212;2023-03-01T00:16:57;7.20;;;5.90;;
7817;SDS011;3954;52.624;9.212;2023-03-01T00:19:23;6.23;;;5.60;;
7817;SDS011;3954;52.624;9.212;2023-03-01T00:21:50;8.00;;;5.70;;
7817;SDS011;3954;52.624;9.212;2023-03-01T00:24:16;7.77;;;5.63;;
7817;SDS011;3954;52.624;9.212;2023-03-01T00:26:42;7.23;;;5.33;;
7817;SDS011;3954;52.624;9.212;2023-03-01T00:29:08;9.03;;;5.87;;
7817;SDS011;3954;52.624;9.212;2023-03-01T00:31:34;8.03;;;5.57;;
7817;SDS011;3954;52.624;9.212;2023-03-01T00:34:01;8.73;;;5.67;;
7817;SDS011;3954;52.624;9.212;2023-03-01T00:36:30;8.23;;;5.30;;
7817;SDS011;3954;52.624;9.212;2023-03-01T00:38:58;8.73;;;5.80;;
7817;SDS011;3954;52.624;9.212;2023-03-01T00:41:24;6.37;;;5.50;;
7817;SDS011;3954;52.624;9.212;2023-03-01T00:43:51;6.63;;;5.50;;
7817;SDS011;3954;52.624;9.212;2023-03-01T00:46:18;7.53;;;5.50;;
7817;SDS011;3954;52.624;9.212;2023-03-01T00:48:45;6.50;;;5.30;;
7817;SDS011;3954;52.624;9.212;2023-03-01T00:51:12;8.57;;;5.93;;
7817;SDS011;3954;52.624;9.212;2023-03-01T00:53:38;8.53;;;5.67;;
7817;SDS011;3954;52.624;9.212;2023-03-01T00:56:06;8.00;;;5.67;;
7817;SDS011;3954;52.624;9.212;2023-03-01T00:58:32;6.37;;;5.60;;
7817;SDS011;3954;52.624;9.212;2023-03-01T01:00:59;6.27;;;4.87;;
7817;SDS011;3954;52.624;9.212;2023-03-01T01:03:25;7.03;;;5.63;;
7817;SDS011;3954;52.624;9.212;2023-03-01T01:05:51;7.17;;;5.40;;
7817;SDS011;3954;52.624;9.212;2023-03-01T01:08:17;8.07;;;5.43;;
7817;SDS011;3954;52.624;9.212;2023-03-01T01:10:43;5.70;;;5.10;;
7817;SDS011;3954;52.624;9.212;2023-03-01T01:13:11;7.07;;;5.57;;
7817;SDS011;3954;52.624;9.212;2023-03-01T01:15:38;7.10;;;5.13;;
7817;SDS011;3954;52.624;9.212;2023-03-01T01:18:04;6.53;;;4.83;;
7817;SDS011;3954;52.624;9.212;2023-03-01T01:20:30;7.07;;;4.70;;
7817;SDS011;3954;52.624;9.212;2023-03-01T01:22:56;5.20;;;4.70;;
7817;SDS011;3954;52.624;9.212;2023-03-01T01:25:22;6.83;;;4.83;;
7817;SDS011;3954;52.624;9.212;2023-03-01T01:27:50;6.53;;;4.90;;
7817;SDS011;3954;52.624;9.212;2023-03-01T01:30:17;4.90;;;4.40;;
7817;SDS011;3954;52.624;9.212;2023-03-01T01:32:43;6.97;;;4.93;;
7817;SDS011;3954;52.624;9.212;2023-03-01T01:35:09;5.20;;;4.50;;
7817;SDS011;3954;52.624;9.212;2023-03-01T01:37:35;7.40;;;4.83;;
7817;SDS011;3954;52.624;9.212;2023-03-01T01:40:01;7.03;;;4.70;;
7817;SDS011;3954;52.624;9.212;2023-03-01T01:42:31;6.07;;;4.80;;
7817;SDS011;3954;52.624;9.212;2023-03-01T01:45:25;5.77;;;4.83;;
7817;SDS011;3954;52.624;9.212;2023-03-01T01:47:52;5.57;;;4.63;;
7817;SDS011;3954;52.624;9.212;2023-03-01T01:50:20;6.67;;;4.30;;
7817;SDS011;3954;52.624;9.212;2023-03-01T01:52:46;6.47;;;4.43;;
7817;SDS011;3954;52.624;9.212;2023-03-01T01:55:14;6.00;;;4.50;;
7817;SDS011;3954;52.624;9.212;2023-03-01T01:57:43;5.20;;;3.97;;
7817;SDS011;3954;52.624;9.212;2023-03-01T02:00:11;7.13;;;4.33;;
7817;SDS011;3954;52.624;9.212;2023-03-01T02:02:39;4.07;;;3.60;;
7817;SDS011;3954;52.624;9.212;2023-03-01T02:05:09;4.30;;;3.70;;
7817;SDS011;3954;52.624;9.212;2023-03-01T02:07:36;6.07;;;4.07;;
7817;SDS011;3954;52.624;9.212;2023-03-01T02:10:04;4.43;;;3.63;;
7817;SDS011;3954;52.624;9.212;2023-03-01T02:12:30;4.50;;;4.10;;
7817;SDS011;3954;52.624;9.212;2023-03-01T02:14:56;4.10;;;3.60;;
7817;SDS011;3954;52.624;9.212;2023-03-01T02:17:22;5.23;;;3.97;;
7817;SDS011;3954;52.624;9.212;2023-03-01T02:19:54;5.03;;;3.90;;
7817;SDS011;3954;52.624;9.212;2023-03-01T02:22:25;6.37;;;4.20;;
7817;SDS011;3954;52.624;9.212;2023-03-01T02:24:57;6.07;;;4.33;;
7817;SDS011;3954;52.624;9.212;2023-03-01T02:27:28;4.80;;;3.90;;
7817;SDS011;3954;52.624;9.212;2023-03-01T02:29:59;5.30;;;4.40;;
7817;SDS011;3954;52.624;9.212;2023-03-01T02:32:25;4.23;;;3.67;;
7817;SDS011;3954;52.624;9.212;2023-03-01T02:34:51;5.73;;;3.77;;
7817;SDS011;3954;52.624;9.212;2023-03-01T02:37:17;4.00;;;3.60;;
7817;SDS011;3954;52.624;9.212;2023-03-01T02:39:50;6.73;;;3.97;;
7817;SDS011;3954;52.624;9.212;2023-03-01T02:42:18;5.10;;;4.17;;
7817;SDS011;3954;52.624;9.212;2023-03-01T02:44:48;6.47;;;4.20;;
7817;SDS011;3954;52.624;9.212;2023-03-01T02:47:15;5.10;;;3.60;;
7817;SDS011;3954;52.624;9.212;2023-03-01T02:49:41;7.40;;;4.40;;
7817;SDS011;3954;52.624;9.212;2023-03-01T02:52:11;6.37;;;4.00;;
7817;SDS011;3954;52.624;9.212;2023-03-01T02:54:41;5.57;;;4.07;;
7817;SDS011;3954;52.624;9.212;2023-03-01T02:57:09;4.67;;;4.27;;
7817;SDS011;3954;52.624;9.212;2023-03-01T02:59:35;5.90;;;3.93;;
7817;SDS011;3954;52.624;9.212;2023-03-01T03:02:04;5.30;;;3.80;;
7817;SDS011;3954;52.624;9.212;2023-03-01T03:04:31;4.90;;;3.43;;
7817;SDS011;3954;52.624;9.212;2023-03-01T03:06:57;6.03;;;3.80;;
7817;SDS011;3954;52.624;9.212;2023-03-01T03:09:23;4.93;;;3.70;;
7817;SDS011;3954;52.624;9.212;2023-03-01T03:11:49;5.70;;;4.20;;
7817;SDS011;3954;52.624;9.212;2023-03-01T03:14:16;5.63;;;3.90;;
7817;SDS011;3954;52.624;9.212;2023-03-01T03:16:42;4.30;;;3.90;;
7817;SDS011;3954;52.624;9.212;2023-03-01T03:19:09;5.33;;;4.10;;
7817;SDS011;3954;52.624;9.212;2023-03-01T03:21:36;6.27;;;4.13;;
7817;SDS011;3954;52.624;9.212;2023-03-01T03:24:03;4.53;;;3.73;;
7817;SDS011;3954;52.624;9.212;2023-03-01T03:26:29;5.40;;;4.00;;
7817;SDS011;3954;52.624;9.212;2023-03-01T03:28:55;5.77;;;3.17;;
7817;SDS011;3954;52.624;9.212;2023-03-01T03:31:22;5.03;;;3.93;;
7817;SDS011;3954;52.624;9.212;2023-03-01T03:33:48;4.10;;;3.70;;
7817;SDS011;3954;52.624;9.212;2023-03-01T03:36:15;4.30;;;3.67;;
7817;SDS011;3954;52.624;9.212;2023-03-01T03:38:44;5.43;;;3.90;;
7817;SDS011;3954;52.624;9.212;2023-03-01T03:41:11;4.67;;;3.83;;
7817;SDS011;3954;52.624;9.212;2023-03-01T03:43:38;4.17;;;3.60;;
7817;SDS011;3954;52.624;9.212;2023-03-01T03:46:04;5.23;;;3.93;;
7817;SDS011;3954;52.624;9.212;2023-03-01T03:48:31;3.87;;;3.47;;
7817;SDS011;3954;52.624;9.212;2023-03-01T03:50:57;4.00;;;3.60;;
7817;SDS011;3954;52.624;9.212;2023-03-01T03:53:24;5.40;;;4.00;;
7817;SDS011;3954;52.624;9.212;2023-03-01T03:55:51;5.07;;;3.87;;
7817;SDS011;3954;52.624;9.212;2023-03-01T03:58:18;3.73;;;3.30;;
7817;SDS011;3954;52.624;9.212;2023-03-01T04:00:45;5.10;;;4.20;;
7817;SDS011;3954;52.624;9.212;2023-03-01T04:03:12;6.20;;;3.50;;
7817;SDS011;3954;52.624;9.212;2023-03-01T04:05:39;4.83;;;3.87;;
7817;SDS011;3954;52.624;9.212;2023-03-01T04:08:05;3.83;;;3.40;;
7817;SDS011;3954;52.624;9.212;2023-03-01T04:10:33;6.27;;;4.30;;
7817;SDS011;3954;52.624;9.212;2023-03-01T04:13:00;4.27;;;3.50;;
7817;SDS011;3954;52.624;9.212;2023-03-01T04:15:26;6.90;;;3.67;;
7817;SDS011;3954;52.624;9.212;2023-03-01T04:17:53;6.23;;;3.93;;
7817;SDS011;3954;52.624;9.212;2023-03-01T04:20:20;5.43;;;3.87;;
7817;SDS011;3954;52.624;9.212;2023-03-01T04:22:50;4.57;;;3.47;;
7817;SDS011;3954;52.624;9.212;2023-03-01T04:25:16;5.17;;;4.10;;
7817;SDS011;3954;52.624;9.212;2023-03-01T04:27:42;6.10;;;3.90;;
7817;SDS011;3954;52.624;9.212;2023-03-01T04:30:10;4.17;;;3.80;;
7817;SDS011;3954;52.624;9.212;2023-03-01T04:32:37;5.03;;;3.70;;
7817;SDS011;3954;52.624;9.212;2023-03-01T04:35:03;5.93;;;3.80;;
7817;SDS011;3954;52.624;9.212;2023-03-01T04:37:29;5.23;;;4.30;;
7817;SDS011;3954;52.624;9.212;2023-03-01T04:39:55;5.07;;;4.17;;
7817;SDS011;3954;52.624;9.212;2023-03-01T04:42:22;5.03;;;4.03;;
7817;SDS011;3954;52.624;9.212;2023-03-01T04:44:48;4.63;;;3.47;;
7817;SDS011;3954;52.624;9.212;2023-03-01T04:47:17;6.90;;;4.00;;
7817;SDS011;3954;52.624;9.212;2023-03-01T04:49:43;6.40;;;4.07;;
7817;SDS011;3954;52.624;9.212;2023-03-01T04:52:09;5.70;;;4.00;;
7817;SDS011;3954;52.624;9.212;2023-03-01T04:54:35;5.47;;;4.37;;
7817;SDS011;3954;52.624;9.212;2023-03-01T04:57:02;4.50;;;3.73;;
7817;SDS011;3954;52.624;9.212;2023-03-01T04:59:28;8.20;;;5.00;;
7817;SDS011;3954;52.624;9.212;2023-03-01T05:01:56;8.10;;;4.77;;
7817;SDS011;3954;52.624;9.212;2023-03-01T05:04:24;6.53;;;4.73;;
7817;SDS011;3954;52.624;9.212;2023-03-01T05:06:50;6.60;;;4.77;;
7817;SDS011;3954;52.624;9.212;2023-03-01T05:09:18;8.53;;;4.70;;
7817;SDS011;3954;52.624;9.212;2023-03-01T05:11:44;6.50;;;4.70;;
7817;SDS011;3954;52.624;9.212;2023-03-01T05:14:10;7.60;;;4.70;;
7817;SDS011;3954;52.624;9.212;2023-03-01T05:16:36;8.63;;;5.23;;
7817;SDS011;3954;52.624;9.212;2023-03-01T05:19:02;8.57;;;5.00;;
7817;SDS011;3954;52.624;9.212;2023-03-01T05:21:37;7.70;;;5.37;;
7817;SDS011;3954;52.624;9.212;2023-03-01T05:24:24;7.20;;;4.57;;
7817;SDS011;3954;52.624;9.212;2023-03-01T05:26:50;6.23;;;4.40;;
7817;SDS011;3954;52.624;9.212;2023-03-01T05:29:19;6.93;;;4.40;;
7817;SDS011;3954;52.624;9.212;2023-03-01T05:31:49;6.03;;;4.43;;
7817;SDS011;3954;52.624;9.212;2023-03-01T05:34:15;4.70;;;4.00;;
7817;SDS011;3954;52.624;9.212;2023-03-01T05:36:43;6.00;;;4.43;;
7817;SDS011;3954;52.624;9.212;2023-03-01T05:39:09;4.50;;;3.67;;
7817;SDS011;3954;52.624;9.212;2023-03-01T05:41:35;6.33;;;4.33;;
7817;SDS011;3954;52.624;9.212;2023-03-01T05:44:01;7.67;;;4.80;;
7817;SDS011;3954;52.624;9.212;2023-03-01T05:46:29;6.33;;;4.17;;
7817;SDS011;3954;52.624;9.212;2023-03-01T05:48:55;6.27;;;4.63;;
7817;SDS011;3954;52.624;9.212;2023-03-01T05:51:21;6.83;;;4.47;;
7817;SDS011;3954;52.624;9.212;2023-03-01T05:53:49;6.40;;;4.63;;
7817;SDS011;3954;52.624;9.212;2023-03-01T05:56:15;6.87;;;4.63;;
7817;SDS011;3954;52.624;9.212;2023-03-01T05:58:41;5.67;;;4.00;;
7817;SDS011;3954;52.624;9.212;2023-03-01T06:01:10;7.20;;;4.90;;
7817;SDS011;3954;52.624;9.212;2023-03-01T06:03:36;7.00;;;4.77;;
7817;SDS011;3954;52.624;9.212;2023-03-01T06:06:02;8.93;;;4.80;;
7817;SDS011;3954;52.624;9.212;2023-03-01T06:08:28;8.10;;;4.87;;
7817;SDS011;3954;52.624;9.212;2023-03-01T06:10:56;8.63;;;5.00;;
7817;SDS011;3954;52.624;9.212;2023-03-01T06:13:22;8.93;;;5.53;;
7817;SDS011;3954;52.624;9.212;2023-03-01T06:15:48;6.93;;;4.77;;
7817;SDS011;3954;52.624;9.212;2023-03-01T06:18:15;8.80;;;5.67;;
7817;SDS011;3954;52.624;9.212;2023-03-01T06:20:41;7.77;;;5.27;;
7817;SDS011;3954;52.624;9.212;2023-03-01T06:23:07;7.30;;;5.10;;
7817;SDS011;3954;52.624;9.212;2023-03-01T06:25:33;6.33;;;4.63;;
7817;SDS011;3954;52.624;9.212;2023-03-01T06:28:00;7.20;;;5.30;;
7817;SDS011;3954;52.624;9.212;2023-03-01T06:30:26;6.90;;;4.47;;
7817;SDS011;3954;52.624;9.212;2023-03-01T06:32:52;5.80;;;4.40;;
7817;SDS011;3954;52.624;9.212;2023-03-01T06:35:25;5.47;;;4.60;;
7817;SDS011;3954;52.624;9.212;2023-03-01T06:37:55;5.90;;;4.70;;
7817;SDS011;3954;52.624;9.212;2023-03-01T06:40:21;7.77;;;5.00;;
7817;SDS011;3954;52.624;9.212;2023-03-01T06:42:48;6.00;;;4.50;;
7817;SDS011;3954;52.624;9.212;2023-03-01T06:45:16;7.07;;;4.77;;
7817;SDS011;3954;52.624;9.212;2023-03-01T06:47:42;8.00;;;4.67;;
7817;SDS011;3954;52.624;9.212;2023-03-01T06:50:08;7.33;;;4.57;;
7817;SDS011;3954;52.624;9.212;2023-03-01T06:52:35;5.30;;;4.47;;
7817;SDS011;3954;52.624;9.212;2023-03-01T06:55:01;5.27;;;4.77;;
7817;SDS011;3954;52.624;9.212;2023-03-01T06:57:27;7.60;;;5.37;;
7817;SDS011;3954;52.624;9.212;2023-03-01T06:59:53;13.20;;;7.60;;
7817;SDS011;3954;52.624;9.212;2023-03-01T07:02:20;17.43;;;9.67;;
7817;SDS011;3954;52.624;9.212;2023-03-01T07:04:48;14.23;;;6.63;;
7817;SDS011;3954;52.624;9.212;2023-03-01T07:07:14;10.37;;;6.47;;
7817;SDS011;3954;52.624;9.212;2023-03-01T07:09:40;20.93;;;11.37;;
7817;SDS011;3954;52.624;9.212;2023-03-01T07:12:06;29.40;;;13.93;;
7817;SDS011;3954;52.624;9.212;2023-03-01T07:14:33;24.37;;;13.93;;
7817;SDS011;3954;52.624;9.212;2023-03-01T07:16:59;15.23;;;9.33;;
7817;SDS011;3954;52.624;9.212;2023-03-01T07:19:26;12.27;;;7.83;;
7817;SDS011;3954;52.624;9.212;2023-03-01T07:21:52;9.53;;;6.13;;
7817;SDS011;3954;52.624;9.212;2023-03-01T07:24:18;10.47;;;6.60;;
7817;SDS011;3954;52.624;9.212;2023-03-01T07:26:47;7.80;;;6.13;;
7817;SDS011;3954;52.624;9.212;2023-03-01T07:29:14;7.13;;;5.57;;
7817;SDS011;3954;52.624;9.212;2023-03-01T07:31:40;7.77;;;6.20;;
7817;SDS011;3954;52.624;9.212;2023-03-01T07:34:06;7.53;;;6.20;;
7817;SDS011;3954;52.624;9.212;2023-03-01T07:36:33;8.37;;;5.73;;
7817;SDS011;3954;52.624;9.212;2023-03-01T07:38:59;9.90;;;7.80;;
7817;SDS011;3954;52.624;9.212;2023-03-01T07:41:27;7.87;;;6.40;;
7817;SDS011;3954;52.624;9.212;2023-03-01T07:43:53;7.90;;;6.30;;
7817;SDS011;3954;52.624;9.212;2023-03-01T07:46:19;6.07;;;5.33;;
7817;SDS011;3954;52.624;9.212;2023-03-01T07:48:45;5.27;;;4.57;;
7817;SDS011;3954;52.624;9.212;2023-03-01T07:51:11;6.37;;;5.40;;
7817;SDS011;3954;52.624;9.212;2023-03-01T07:53:38;6.23;;;5.53;;
7817;SDS011;3954;52.624;9.212;2023-03-01T07:56:05;7.50;;;5.43;;
7817;SDS011;3954;52.624;9.212;2023-03-01T07:58:33;6.13;;;5.33;;
7817;SDS011;3954;52.624;9.212;2023-03-01T08:01:00;7.40;;;5.30;;
7817;SDS011;3954;52.624;9.212;2023-03-01T08:03:27;6.10;;;4.80;;
7817;SDS011;3954;52.624;9.212;2023-03-01T08:05:53;6.77;;;5.30;;
7817;SDS011;3954;52.624;9.212;2023-03-01T08:08:19;9.37;;;5.50;;
7817;SDS011;3954;52.624;9.212;2023-03-01T08:10:46;7.10;;;5.73;;
7817;SDS011;3954;52.624;9.212;2023-03-01T08:13:12;8.30;;;5.67;;
7817;SDS011;3954;52.624;9.212;2023-03-01T08:15:38;6.83;;;5.77;;
7817;SDS011;3954;52.624;9.212;2023-03-01T08:18:04;7.13;;;5.30;;
7817;SDS011;3954;52.624;9.212;2023-03-01T08:20:31;6.03;;;4.80;;
7817;SDS011;3954;52.624;9.212;2023-03-01T08:22:57;6.57;;;4.83;;
7817;SDS011;3954;52.624;9.212;2023-03-01T08:25:23;8.03;;;5.20;;
7817;SDS011;3954;52.624;9.212;2023-03-01T08:27:51;6.00;;;5.00;;
7817;SDS011;3954;52.624;9.212;2023-03-01T08:30:17;7.27;;;5.40;;
7817;SDS011;3954;52.624;9.212;2023-03-01T08:32:43;7.70;;;5.73;;
7817;SDS011;3954;52.624;9.212;2023-03-01T08:35:09;6.27;;;5.10;;
7817;SDS011;3954;52.624;9.212;2023-03-01T08:37:35;5.90;;;4.50;;
7817;SDS011;3954;52.624;9.212;2023-03-01T08:40:01;6.63;;;4.23;;
7817;SDS011;3954;52.624;9.212;2023-03-01T08:42:29;4.93;;;4.00;;
7817;SDS011;3954;52.624;9.212;2023-03-01T08:44:56;5.00;;;4.10;;
7817;SDS011;3954;52.624;9.212;2023-03-01T08:47:23;4.70;;;4.20;;
7817;SDS011;3954;52.624;9.212;2023-03-01T08:49:49;5.13;;;3.97;;
7817;SDS011;3954;52.624;9.212;2023-03-01T08:52:15;4.30;;;3.90;;
7817;SDS011;3954;52.624;9.212;2023-03-01T08:54:41;5.40;;;3.80;;
7817;SDS011;3954;52.624;9.212;2023-03-01T08:57:07;4.47;;;3.90;;
7817;SDS011;3954;52.624;9.212;2023-03-01T08:59:34;7.00;;;4.33;;
7817;SDS011;3954;52.624;9.212;2023-03-01T09:02:03;5.90;;;4.40;;
7817;SDS011;3954;52.624;9.212;2023-03-01T09:04:29;5.97;;;4.60;;
7817;SDS011;3954;52.624;9.212;2023-03-01T09:06:55;8.03;;;3.80;;
7817;SDS011;3954;52.624;9.212;2023-03-01T09:09:21;6.40;;;4.20;;
7817;SDS011;3954;52.624;9.212;2023-03-01T09:11:47;5.57;;;4.40;;
7817;SDS011;3954;52.624;9.212;2023-03-01T09:14:15;6.10;;;3.93;;
7817;SDS011;3954;52.624;9.212;2023-03-01T09:16:41;4.67;;;4.17;;
7817;SDS011;3954;52.624;9.212;2023-03-01T09:19:08;7.37;;;4.70;;
7817;SDS011;3954;52.624;9.212;2023-03-01T09:21:34;4.50;;;3.97;;
7817;SDS011;3954;52.624;9.212;2023-03-01T09:24:00;7.10;;;4.77;;
7817;SDS011;3954;52.624;9.212;2023-03-01T09:26:26;4.77;;;4.33;;
7817;SDS011;3954;52.624;9.212;2023-03-01T09:28:53;4.77;;;4.20;;
7817;SDS011;3954;52.624;9.212;2023-03-01T09:31:20;7.20;;;3.80;;
7817;SDS011;3954;52.624;9.212;2023-03-01T09:33:46;5.53;;;3.97;;
7817;SDS011;3954;52.624;9.212;2023-03-01T09:36:15;3.77;;;3.37;;
7817;SDS011;3954;52.624;9.212;2023-03-01T09:38:41;4.30;;;3.83;;
7817;SDS011;3954;52.624;9.212;2023-03-01T09:41:09;4.53;;;3.97;;
7817;SDS011;3954;52.624;9.212;2023-03-01T09:43:37;4.03;;;3.63;;
7817;SDS011;3954;52.624;9.212;2023-03-01T09:46:07;4.07;;;3.47;;
7817;SDS011;3954;52.624;9.212;2023-03-01T09:48:37;3.67;;;3.30;;
7817;SDS011;3954;52.624;9.212;2023-03-01T09:51:06;5.10;;;3.67;;
7817;SDS011;3954;52.624;9.212;2023-03-01T09:53:36;5.23;;;3.73;;
7817;SDS011;3954;52.624;9.212;2023-03-01T09:56:02;4.93;;;3.60;;
7817;SDS011;3954;52.624;9.212;2023-03-01T10:01:23;3.97;;;3.57;;
7817;SDS011;3954;52.624;9.212;2023-03-01T10:03:57;4.73;;;3.60;;
7817;SDS011;3954;52.624;9.212;2023-03-01T10:06:26;3.40;;;3.10;;
7817;SDS011;3954;52.624;9.212;2023-03-01T10:08:53;4.10;;;3.17;;
7817;SDS011;3954;52.624;9.212;2023-03-01T10:11:21;3.47;;;3.17;;
7817;SDS011;3954;52.624;9.212;2023-03-01T10:13:48;4.13;;;2.83;;
7817;SDS011;3954;52.624;9.212;2023-03-01T10:16:19;4.53;;;3.30;;
7817;SDS011;3954;52.624;9.212;2023-03-01T10:18:47;4.90;;;3.20;;
7817;SDS011;3954;52.624;9.212;2023-03-01T10:21:18;3.30;;;2.80;;
7817;SDS011;3954;52.624;9.212;2023-03-01T10:23:44;3.63;;;2.70;;
7817;SDS011;3954;52.624;9.212;2023-03-01T10:26:20;4.10;;;2.90;;
7817;SDS011;3954;52.624;9.212;2023-03-01T10:28:50;4.10;;;2.77;;
7817;SDS011;3954;52.624;9.212;2023-03-01T10:31:20;3.33;;;3.03;;
7817;SDS011;3954;52.624;9.212;2023-03-01T10:33:48;3.10;;;2.67;;
7817;SDS011;3954;52.624;9.212;2023-03-01T10:36:19;2.70;;;2.40;;
7817;SDS011;3954;52.624;9.212;2023-03-01T10:38:49;3.87;;;2.77;;
7817;SDS011;3954;52.624;9.212;2023-03-01T10:41:18;3.13;;;2.83;;
7817;SDS011;3954;52.624;9.212;2023-03-01T10:43:45;3.20;;;2.30;;
7817;SDS011;3954;52.624;9.212;2023-03-01T10:46:21;4.40;;;2.13;;
7817;SDS011;3954;52.624;9.212;2023-03-01T10:48:50;2.60;;;2.27;;
7817;SDS011;3954;52.624;9.212;2023-03-01T10:51:30;5.93;;;2.87;;
7817;SDS011;3954;52.624;9.212;2023-03-01T10:53:56;3.70;;;2.57;;
7817;SDS011;3954;52.624;9.212;2023-03-01T10:56:24;3.90;;;2.80;;
7817;SDS011;3954;52.624;9.212;2023-03-01T10:58:57;3.10;;;2.27;;
7817;SDS011;3954;52.624;9.212;2023-03-01T11:01:26;2.80;;;2.33;;
7817;SDS011;3954;52.624;9.212;2023-03-01T11:04:03;2.77;;;2.27;;
7817;SDS011;3954;52.624;9.212;2023-03-01T11:06:35;3.53;;;2.80;;
7817;SDS011;3954;52.624;9.212;2023-03-01T11:09:12;2.90;;;2.60;;
7817;SDS011;3954;52.624;9.212;2023-03-01T11:11:41;4.27;;;2.60;;
7817;SDS011;3954;52.624;9.212;2023-03-01T11:14:07;3.47;;;2.40;;
7817;SDS011;3954;52.624;9.212;2023-03-01T11:16:39;4.07;;;2.60;;
7817;SDS011;3954;52.624;9.212;2023-03-01T11:19:13;2.53;;;2.20;;
7817;SDS011;3954;52.624;9.212;2023-03-01T11:21:41;2.87;;;2.50;;
7817;SDS011;3954;52.624;9.212;2023-03-01T11:24:09;4.10;;;2.57;;
7817;SDS011;3954;52.624;9.212;2023-03-01T11:26:36;3.23;;;2.93;;
7817;SDS011;3954;52.624;9.212;2023-03-01T11:29:06;2.60;;;2.40;;
7817;SDS011;3954;52.624;9.212;2023-03-01T11:31:33;4.03;;;2.70;;
7817;SDS011;3954;52.624;9.212;2023-03-01T11:34:02;2.97;;;2.60;;
7817;SDS011;3954;52.624;9.212;2023-03-01T11:36:30;3.13;;;2.43;;
7817;SDS011;3954;52.624;9.212;2023-03-01T11:38:57;2.83;;;2.50;;
7817;SDS011;3954;52.624;9.212;2023-03-01T11:41:28;2.87;;;2.60;;
7817;SDS011;3954;52.624;9.212;2023-03-01T11:43:56;3.70;;;2.60;;
7817;SDS011;3954;52.624;9.212;2023-03-01T11:49:29;2.37;;;2.10;;
7817;SDS011;3954;52.624;9.212;2023-03-01T11:51:59;2.87;;;2.33;;
7817;SDS011;3954;52.624;9.212;2023-03-01T11:54:31;2.40;;;2.20;;
7817;SDS011;3954;52.624;9.212;2023-03-01T11:57:02;2.60;;;2.13;;
7817;SDS011;3954;52.624;9.212;2023-03-01T11:59:34;3.70;;;2.27;;
7817;SDS011;3954;52.624;9.212;2023-03-01T12:02:14;2.40;;;2.00;;
7817;SDS011;3954;52.624;9.212;2023-03-01T12:04:57;2.83;;;2.17;;
7817;SDS011;3954;52.624;9.212;2023-03-01T12:07:26;2.53;;;2.30;;
7817;SDS011;3954;52.624;9.212;2023-03-01T12:10:03;2.37;;;2.10;;
7817;SDS011;3954;52.624;9.212;2023-03-01T12:12:40;2.10;;;1.90;;
7817;SDS011;3954;52.624;9.212;2023-03-01T12:15:18;2.40;;;2.20;;
7817;SDS011;3954;52.624;9.212;2023-03-01T12:17:59;3.07;;;2.30;;
7817;SDS011;3954;52.624;9.212;2023-03-01T12:20:32;2.90;;;2.40;;
7817;SDS011;3954;52.624;9.212;2023-03-01T12:25:47;2.27;;;2.07;;
7817;SDS011;3954;52.624;9.212;2023-03-01T12:28:26;2.83;;;2.37;;
7817;SDS011;3954;52.624;9.212;2023-03-01T12:31:08;2.40;;;2.20;;
7817;SDS011;3954;52.624;9.212;2023-03-01T12:33:41;2.90;;;2.30;;
7817;SDS011;3954;52.624;9.212;2023-03-01T12:36:14;3.27;;;2.07;;
7817;SDS011;3954;52.624;9.212;2023-03-01T12:38:45;2.97;;;2.50;;
7817;SDS011;3954;52.624;9.212;2023-03-01T12:43:58;3.20;;;2.50;;
7817;SDS011;3954;52.624;9.212;2023-03-01T12:46:29;2.43;;;2.20;;
7817;SDS011;3954;52.624;9.212;2023-03-01T12:48:59;2.70;;;2.33;;
7817;SDS011;3954;52.624;9.212;2023-03-01T12:51:30;3.10;;;2.30;;
7817;SDS011;3954;52.624;9.212;2023-03-01T12:53:57;2.40;;;2.20;;
7817;SDS011;3954;52.624;9.212;2023-03-01T12:56:25;2.57;;;2.37;;
7817;SDS011;3954;52.624;9.212;2023-03-01T12:58:55;2.67;;;2.20;;
7817;SDS011;3954;52.624;9.212;2023-03-01T13:01:26;2.50;;;2.10;;
7817;SDS011;3954;52.624;9.212;2023-03-01T13:03:59;3.33;;;2.43;;
7817;SDS011;3954;52.624;9.212;2023-03-01T13:06:32;5.73;;;5.13;;
7817;SDS011;3954;52.624;9.212;2023-03-01T13:09:04;3.40;;;2.47;;
7817;SDS011;3954;52.624;9.212;2023-03-01T13:11:31;2.53;;;2.27;;
7817;SDS011;3954;52.624;9.212;2023-03-01T13:16:40;2.60;;;2.30;;
7817;SDS011;3954;52.624;9.212;2023-03-01T13:19:14;2.97;;;2.67;;
7817;SDS011;3954;52.624;9.212;2023-03-01T13:21:43;2.30;;;2.10;;
7817;SDS011;3954;52.624;9.212;2023-03-01T13:24:26;3.00;;;2.67;;
7817;SDS011;3954;52.624;9.212;2023-03-01T13:29:54;2.43;;;2.17;;
7817;SDS011;3954;52.624;9.212;2023-03-01T13:32:21;3.97;;;2.70;;
7817;SDS011;3954;52.624;9.212;2023-03-01T13:34:49;3.60;;;2.37;;
7817;SDS011;3954;52.624;9.212;2023-03-01T13:37:20;3.13;;;2.50;;
7817;SDS011;3954;52.624;9.212;2023-03-01T13:39:46;3.67;;;3.00;;
7817;SDS011;3954;52.624;9.212;2023-03-01T13:42:29;4.27;;;3.13;;
7817;SDS011;3954;52.624;9.212;2023-03-01T13:44:56;2.60;;;2.40;;
7817;SDS011;3954;52.624;9.212;2023-03-01T13:47:22;2.40;;;2.20;;
7817;SDS011;3954;52.624;9.212;2023-03-01T13:49:49;2.93;;;2.53;;
7817;SDS011;3954;52.624;9.212;2023-03-01T13:52:35;3.67;;;2.43;;
7817;SDS011;3954;52.624;9.212;2023-03-01T13:55:03;2.80;;;2.50;;
7817;SDS011;3954;52.624;9.212;2023-03-01T13:57:30;3.23;;;2.47;;
7817;SDS011;3954;52.624;9.212;2023-03-01T13:59:58;4.47;;;2.47;;
7817;SDS011;3954;52.624;9.212;2023-03-01T14:02:24;4.33;;;2.70;;
7817;SDS011;3954;52.624;9.212;2023-03-01T14:04:55;4.87;;;3.00;;
7817;SDS011;3954;52.624;9.212;2023-03-01T14:07:22;2.50;;;2.30;;
7817;SDS011;3954;52.624;9.212;2023-03-01T14:09:51;4.00;;;2.80;;
7817;SDS011;3954;52.624;9.212;2023-03-01T14:12:32;4.40;;;3.10;;
7817;SDS011;3954;52.624;9.212;2023-03-01T14:15:04;3.80;;;3.27;;
7817;SDS011;3954;52.624;9.212;2023-03-01T14:17:43;3.20;;;2.60;;
7817;SDS011;3954;52.624;9.212;2023-03-01T14:20:12;2.90;;;2.53;;
7817;SDS011;3954;52.624;9.212;2023-03-01T14:22:39;4.20;;;3.03;;
7817;SDS011;3954;52.624;9.212;2023-03-01T14:25:16;2.97;;;2.60;;
7817;SDS011;3954;52.624;9.212;2023-03-01T14:27:43;5.37;;;3.13;;
7817;SDS011;3954;52.624;9.212;2023-03-01T14:30:10;4.63;;;2.80;;
7817;SDS011;3954;52.624;9.212;2023-03-01T14:32:38;2.67;;;2.30;;
7817;SDS011;3954;52.624;9.212;2023-03-01T14:35:18;2.93;;;2.10;;
7817;SDS011;3954;52.624;9.212;2023-03-01T14:37:45;2.43;;;2.23;;
7817;SDS011;3954;52.624;9.212;2023-03-01T14:40:19;2.50;;;2.00;;
7817;SDS011;3954;52.624;9.212;2023-03-01T14:42:45;2.30;;;2.00;;
7817;SDS011;3954;52.624;9.212;2023-03-01T14:45:11;2.13;;;1.93;;
7817;SDS011;3954;52.624;9.212;2023-03-01T14:47:38;2.67;;;2.40;;
7817;SDS011;3954;52.624;9.212;2023-03-01T14:50:05;2.20;;;2.00;;
7817;SDS011;3954;52.624;9.212;2023-03-01T14:52:33;3.40;;;2.10;;
7817;SDS011;3954;52.624;9.212;2023-03-01T14:55:01;2.20;;;2.00;;
7817;SDS011;3954;52.624;9.212;2023-03-01T14:57:29;2.37;;;2.17;;
7817;SDS011;3954;52.624;9.212;2023-03-01T14:59:55;2.17;;;1.90;;
7817;SDS011;3954;52.624;9.212;2023-03-01T15:02:24;2.97;;;1.93;;
7817;SDS011;3954;52.624;9.212;2023-03-01T15:04:51;2.83;;;2.37;;
7817;SDS011;3954;52.624;9.212;2023-03-01T15:07:17;2.40;;;2.20;;
7817;SDS011;3954;52.624;9.212;2023-03-01T15:09:44;3.23;;;2.20;;
7817;SDS011;3954;52.624;9.212;2023-03-01T15:14:56;4.00;;;2.40;;
7817;SDS011;3954;52.624;9.212;2023-03-01T15:17:26;3.47;;;2.30;;
7817;SDS011;3954;52.624;9.212;2023-03-01T15:19:53;3.03;;;2.20;;
7817;SDS011;3954;52.624;9.212;2023-03-01T15:22:19;4.13;;;2.90;;
7817;SDS011;3954;52.624;9.212;2023-03-01T15:24:47;3.10;;;2.40;;
7817;SDS011;3954;52.624;9.212;2023-03-01T15:27:14;3.47;;;2.20;;
7817;SDS011;3954;52.624;9.212;2023-03-01T15:29:41;2.37;;;2.17;;
7817;SDS011;3954;52.624;9.212;2023-03-01T15:32:24;3.00;;;2.70;;
7817;SDS011;3954;52.624;9.212;2023-03-01T15:34:50;3.07;;;2.40;;
7817;SDS011;3954;52.624;9.212;2023-03-01T15:39:57;5.13;;;3.40;;
7817;SDS011;3954;52.624;9.212;2023-03-01T15:42:36;4.77;;;3.50;;
7817;SDS011;3954;52.624;9.212;2023-03-01T15:45:08;4.03;;;2.90;;